Burlington, VT

12:11 AM EST on December 19, 2014 (GMT -0500)
Morrisville Stowe State | Change Station
CLOSE
Current Station
Airport
Location: Morrisville,
Elevation: 732 ft
Nearby Weather Stations
Active Advisory: Special Statement

Elev 732 ft 44.53 °N, 72.61 °W | Updated 17 minutes ago

Overcast
Overcast
27 °F
Feels Like 20 °F
N
6
Wind Variable Wind from NW

Today
High -- | Low -- °F
--% Chance of Precip.
Yesterday
High -- | Low -- °F
Precip. -- in
7:25 AM 4:15 PM
Waning Crescent, 10% visible
Pressure 29.94 in
Visibility 9.0 miles
Clouds Overcast 1700 ft
Windchill 20 °F
Dew Point 22 °F
Humidity 81%
Rainfall 0.01 in
Snow Depth Not available.
UV 0 out of 12
Pollen .10 out of 12
Air Quality Not available.
Flu Activity Not available.
METAR KMVL 190454Z AUTO 32005KT 9SM OVC017 M03/M06 A2990 RMK AO2 UPB04E41 SLP136 P0000 T10281056 400111028 TSNO

More Conditions Fewer Conditions

Pressure 29.94 in
Visibility 9.0 miles
Clouds Overcast 1700 ft
Windchill 20 °F
Dew Point 22 °F
Humidity 81%
Rainfall 0.01 in
Snow Depth Not available.
UV 0 out of 12
Pollen .10 out of 12
Air Quality Not available.
Flu Activity Not available.
METAR KMVL 190454Z AUTO 32005KT 9SM OVC017 M03/M06 A2990 RMK AO2 UPB04E41 SLP136 P0000 T10281056 400111028 TSNO

More Conditions Fewer Conditions

10-Day Weather Forecast

Almanac

Astronomy

Dec. 19, 2014 Rise Set
Actual Time
Civil Twilight
Nautical Twilight
Astronomical Twilight
Moon
Length of Visible Light
Length of Day
Tomorrow will be .
, % of the Moon is Illuminated

Today's Extremes

State Highs State Lows

Community

WunderPhotos

Upload Photos

1,778,953 photos uploaded!

WunderBlogs® & News

Nearby

Air Quality

  Air Quality AQ Index Pollutant
Not available.

Snow Depth

Station Depth Elevation

Earthquake Activity

City Distance Mag. Time & Date
Minimum magnitude displayed is 2.5.

Coastal Water Temperatures

Place Temperature

Nearby Weather Stations